sensor_id;sensor_type;location;lat;lon;timestamp;pressure;altitude;pressure_sealevel;temperature;humidity
66887;BME280;67239;51.680;5.976;2023-02-16T00:02:10;102337.25;;;4.30;81.34
66887;BME280;67239;51.680;5.976;2023-02-16T00:04:37;102326.78;;;4.27;81.56
66887;BME280;67239;51.680;5.976;2023-02-16T00:07:04;102327.56;;;4.24;81.48
66887;BME280;67239;51.680;5.976;2023-02-16T00:09:31;102325.75;;;4.20;81.69
66887;BME280;67239;51.680;5.976;2023-02-16T00:11:57;102312.66;;;4.18;81.93
66887;BME280;67239;51.680;5.976;2023-02-16T00:14:43;102325.69;;;4.15;81.83
66887;BME280;67239;51.680;5.976;2023-02-16T00:17:10;102319.53;;;4.13;82.05
66887;BME280;67239;51.680;5.976;2023-02-16T00:19:39;102315.16;;;4.12;82.38
66887;BME280;67239;51.680;5.976;2023-02-16T00:22:08;102319.47;;;4.10;82.38
66887;BME280;67239;51.680;5.976;2023-02-16T00:24:37;102317.69;;;4.09;82.34
66887;BME280;67239;51.680;5.976;2023-02-16T00:27:12;102323.75;;;4.08;82.67
66887;BME280;67239;51.680;5.976;2023-02-16T00:29:41;102319.38;;;4.06;82.55
66887;BME280;67239;51.680;5.976;2023-02-16T00:32:11;102324.59;;;4.06;82.71
66887;BME280;67239;51.680;5.976;2023-02-16T00:34:40;102321.97;;;4.04;82.63
66887;BME280;67239;51.680;5.976;2023-02-16T00:37:10;102321.03;;;4.00;82.66
66887;BME280;67239;51.680;5.976;2023-02-16T00:39:40;102320.09;;;3.98;82.70
66887;BME280;67239;51.680;5.976;2023-02-16T00:42:21;102319.19;;;3.96;82.80
66887;BME280;67239;51.680;5.976;2023-02-16T00:44:53;102317.34;;;3.92;82.79
66887;BME280;67239;51.680;5.976;2023-02-16T00:47:33;102326.06;;;3.91;82.73
66887;BME280;67239;51.680;5.976;2023-02-16T00:50:19;102325.06;;;3.87;82.72
66887;BME280;67239;51.680;5.976;2023-02-16T00:52:56;102326.81;;;3.85;82.93
66887;BME280;67239;51.680;5.976;2023-02-16T00:55:27;102323.28;;;3.85;83.11
66887;BME280;67239;51.680;5.976;2023-02-16T00:58:21;102323.22;;;3.82;83.07
66887;BME280;67239;51.680;5.976;2023-02-16T01:01:13;102324.09;;;3.81;83.17
66887;BME280;67239;51.680;5.976;2023-02-16T01:03:45;102321.41;;;3.78;83.09
66887;BME280;67239;51.680;5.976;2023-02-16T01:06:12;102317.03;;;3.77;83.24
66887;BME280;67239;51.680;5.976;2023-02-16T01:09:18;102319.63;;;3.75;83.45
66887;BME280;67239;51.680;5.976;2023-02-16T01:12:13;102320.41;;;3.72;83.35
66887;BME280;67239;51.680;5.976;2023-02-16T01:14:46;102320.41;;;3.72;83.44
66887;BME280;67239;51.680;5.976;2023-02-16T01:17:17;102325.59;;;3.71;83.45
66887;BME280;67239;51.680;5.976;2023-02-16T01:19:45;102316.00;;;3.70;83.69
66887;BME280;67239;51.680;5.976;2023-02-16T01:22:14;102325.59;;;3.69;83.79
66887;BME280;67239;51.680;5.976;2023-02-16T01:24:42;102315.16;;;3.69;83.73
66887;BME280;67239;51.680;5.976;2023-02-16T01:27:11;102316.84;;;3.67;83.90
66887;BME280;67239;51.680;5.976;2023-02-16T01:29:42;102316.81;;;3.66;83.80
66887;BME280;67239;51.680;5.976;2023-02-16T01:32:11;102308.13;;;3.67;84.01
66887;BME280;67239;51.680;5.976;2023-02-16T01:34:38;102303.72;;;3.64;83.94
66887;BME280;67239;51.680;5.976;2023-02-16T01:37:12;102306.31;;;3.64;83.98
66887;BME280;67239;51.680;5.976;2023-02-16T01:39:42;102302.78;;;3.62;84.04
66887;BME280;67239;51.680;5.976;2023-02-16T01:42:33;102306.28;;;3.61;84.09
66887;BME280;67239;51.680;5.976;2023-02-16T01:45:17;102300.16;;;3.61;84.40
66887;BME280;67239;51.680;5.976;2023-02-16T01:47:53;102294.09;;;3.62;84.63
66887;BME280;67239;51.680;5.976;2023-02-16T01:50:48;102295.88;;;3.63;84.33
66887;BME280;67239;51.680;5.976;2023-02-16T01:56:38;102284.53;;;3.62;84.39
66887;BME280;67239;51.680;5.976;2023-02-16T01:59:19;102283.69;;;3.62;84.62
66887;BME280;67239;51.680;5.976;2023-02-16T02:02:15;102289.75;;;3.62;84.75
66887;BME280;67239;51.680;5.976;2023-02-16T02:05:04;102294.19;;;3.65;84.83
66887;BME280;67239;51.680;5.976;2023-02-16T02:07:55;102283.69;;;3.63;84.75
66887;BME280;67239;51.680;5.976;2023-02-16T02:13:43;102269.78;;;3.61;84.64
66887;BME280;67239;51.680;5.976;2023-02-16T02:16:17;102262.78;;;3.60;84.83
66887;BME280;67239;51.680;5.976;2023-02-16T02:18:47;102253.19;;;3.59;84.92
66887;BME280;67239;51.680;5.976;2023-02-16T02:21:29;102252.38;;;3.62;85.03
66887;BME280;67239;51.680;5.976;2023-02-16T02:30:27;102254.91;;;3.58;84.92
66887;BME280;67239;51.680;5.976;2023-02-16T02:33:37;102254.88;;;3.55;84.96
66887;BME280;67239;51.680;5.976;2023-02-16T02:36:25;102251.28;;;3.52;84.98
66887;BME280;67239;51.680;5.976;2023-02-16T02:42:22;102247.69;;;3.45;84.97
66887;BME280;67239;51.680;5.976;2023-02-16T02:48:07;102252.69;;;3.36;84.92
66887;BME280;67239;51.680;5.976;2023-02-16T02:53:46;102256.06;;;3.30;85.00
66887;BME280;67239;51.680;5.976;2023-02-16T02:56:37;102256.81;;;3.26;85.09
66887;BME280;67239;51.680;5.976;2023-02-16T02:59:26;102235.03;;;3.24;85.21
66887;BME280;67239;51.680;5.976;2023-02-16T03:02:16;102241.09;;;3.23;85.33
66887;BME280;67239;51.680;5.976;2023-02-16T03:04:47;102229.75;;;3.21;85.29
66887;BME280;67239;51.680;5.976;2023-02-16T03:07:15;102232.34;;;3.19;85.48
66887;BME280;67239;51.680;5.976;2023-02-16T03:09:43;102226.25;;;3.19;85.88
66887;BME280;67239;51.680;5.976;2023-02-16T03:12:11;102215.84;;;3.19;85.51
66887;BME280;67239;51.680;5.976;2023-02-16T03:14:58;102217.53;;;3.18;85.72
66887;BME280;67239;51.680;5.976;2023-02-16T03:17:32;102212.34;;;3.18;85.72
66887;BME280;67239;51.680;5.976;2023-02-16T03:20:21;102214.09;;;3.19;85.61
66887;BME280;67239;51.680;5.976;2023-02-16T03:23:07;102210.66;;;3.20;85.74
66887;BME280;67239;51.680;5.976;2023-02-16T03:25:53;102213.25;;;3.20;85.60
66887;BME280;67239;51.680;5.976;2023-02-16T03:28:42;102216.69;;;3.19;85.75
66887;BME280;67239;51.680;5.976;2023-02-16T03:31:33;102219.31;;;3.19;85.65
66887;BME280;67239;51.680;5.976;2023-02-16T03:34:07;102222.75;;;3.18;85.58
66887;BME280;67239;51.680;5.976;2023-02-16T03:36:36;102220.13;;;3.17;85.55
66887;BME280;67239;51.680;5.976;2023-02-16T03:39:05;102224.41;;;3.13;85.50
66887;BME280;67239;51.680;5.976;2023-02-16T03:41:38;102224.34;;;3.11;85.61
66887;BME280;67239;51.680;5.976;2023-02-16T03:44:08;102226.84;;;3.07;85.51
66887;BME280;67239;51.680;5.976;2023-02-16T03:46:36;102218.13;;;3.05;85.57
66887;BME280;67239;51.680;5.976;2023-02-16T03:49:03;102215.44;;;3.02;85.49
66887;BME280;67239;51.680;5.976;2023-02-16T03:51:30;102225.78;;;2.99;85.62
66887;BME280;67239;51.680;5.976;2023-02-16T03:53:57;102229.19;;;2.94;85.60
66887;BME280;67239;51.680;5.976;2023-02-16T03:56:24;102222.97;;;2.89;85.76
66887;BME280;67239;51.680;5.976;2023-02-16T03:58:51;102221.19;;;2.88;85.74
66887;BME280;67239;51.680;5.976;2023-02-16T04:01:18;102208.97;;;2.84;85.81
66887;BME280;67239;51.680;5.976;2023-02-16T04:03:45;102212.34;;;2.80;85.85
66887;BME280;67239;51.680;5.976;2023-02-16T04:06:12;102204.44;;;2.77;85.99
66887;BME280;67239;51.680;5.976;2023-02-16T04:08:39;102208.69;;;2.73;85.91
66887;BME280;67239;51.680;5.976;2023-02-16T04:11:06;102212.13;;;2.72;86.06
66887;BME280;67239;51.680;5.976;2023-02-16T04:13:52;102222.53;;;2.71;86.13
66887;BME280;67239;51.680;5.976;2023-02-16T04:16:19;102206.91;;;2.71;86.37
66887;BME280;67239;51.680;5.976;2023-02-16T04:18:46;102208.69;;;2.73;86.86
66887;BME280;67239;51.680;5.976;2023-02-16T04:21:13;102213.16;;;2.77;86.89
66887;BME280;67239;51.680;5.976;2023-02-16T04:23:41;102215.03;;;2.83;87.11
66887;BME280;67239;51.680;5.976;2023-02-16T04:26:08;102209.94;;;2.89;87.16
66887;BME280;67239;51.680;5.976;2023-02-16T04:28:35;102213.56;;;2.96;87.27
66887;BME280;67239;51.680;5.976;2023-02-16T04:31:02;102225.88;;;3.02;87.43
66887;BME280;67239;51.680;5.976;2023-02-16T04:33:29;102232.94;;;3.07;87.27
66887;BME280;67239;51.680;5.976;2023-02-16T04:35:56;102233.97;;;3.14;87.40
66887;BME280;67239;51.680;5.976;2023-02-16T04:38:23;102229.72;;;3.19;87.35
66887;BME280;67239;51.680;5.976;2023-02-16T04:40:51;102235.97;;;3.26;87.22
66887;BME280;67239;51.680;5.976;2023-02-16T04:43:18;102229.13;;;3.31;87.13
66887;BME280;67239;51.680;5.976;2023-02-16T04:45:45;102224.88;;;3.35;87.19
66887;BME280;67239;51.680;5.976;2023-02-16T04:48:12;102230.97;;;3.37;87.02
66887;BME280;67239;51.680;5.976;2023-02-16T04:50:39;102221.47;;;3.39;87.14
66887;BME280;67239;51.680;5.976;2023-02-16T04:53:06;102220.63;;;3.40;86.91
66887;BME280;67239;51.680;5.976;2023-02-16T04:55:33;102225.84;;;3.40;86.52
66887;BME280;67239;51.680;5.976;2023-02-16T04:58:00;102226.66;;;3.37;86.53
66887;BME280;67239;51.680;5.976;2023-02-16T05:00:27;102213.53;;;3.34;86.64
66887;BME280;67239;51.680;5.976;2023-02-16T05:02:55;102220.50;;;3.34;86.61
66887;BME280;67239;51.680;5.976;2023-02-16T05:05:22;102219.59;;;3.33;86.74
66887;BME280;67239;51.680;5.976;2023-02-16T05:07:49;102223.13;;;3.34;86.82
66887;BME280;67239;51.680;5.976;2023-02-16T05:10:16;102219.69;;;3.38;87.03
66887;BME280;67239;51.680;5.976;2023-02-16T05:12:43;102214.59;;;3.42;87.07
66887;BME280;67239;51.680;5.976;2023-02-16T05:15:29;102226.00;;;3.48;86.98
66887;BME280;67239;51.680;5.976;2023-02-16T05:17:56;102222.69;;;3.55;87.10
66887;BME280;67239;51.680;5.976;2023-02-16T05:20:23;102211.50;;;3.62;87.08
66887;BME280;67239;51.680;5.976;2023-02-16T05:23:09;102196.84;;;3.66;86.95
66887;BME280;67239;51.680;5.976;2023-02-16T05:25:36;102193.41;;;3.68;86.96
66887;BME280;67239;51.680;5.976;2023-02-16T05:28:03;102201.25;;;3.71;87.35
66887;BME280;67239;51.680;5.976;2023-02-16T05:30:30;102224.91;;;3.79;87.01
66887;BME280;67239;51.680;5.976;2023-02-16T05:32:57;102221.53;;;3.85;87.11
66887;BME280;67239;51.680;5.976;2023-02-16T05:35:24;102213.81;;;3.89;86.97
66887;BME280;67239;51.680;5.976;2023-02-16T05:37:51;102213.94;;;3.96;86.81
66887;BME280;67239;51.680;5.976;2023-02-16T05:40:21;102210.59;;;4.03;86.97
66887;BME280;67239;51.680;5.976;2023-02-16T05:42:52;102203.69;;;4.08;87.04
66887;BME280;67239;51.680;5.976;2023-02-16T05:45:22;102194.22;;;4.12;86.99
66887;BME280;67239;51.680;5.976;2023-02-16T05:47:49;102199.53;;;4.16;86.84
66887;BME280;67239;51.680;5.976;2023-02-16T05:50:16;102204.88;;;4.24;87.26
66887;BME280;67239;51.680;5.976;2023-02-16T05:52:43;102194.50;;;4.29;87.13
66887;BME280;67239;51.680;5.976;2023-02-16T05:55:09;102199.94;;;4.40;87.53
66887;BME280;67239;51.680;5.976;2023-02-16T05:57:36;102204.47;;;4.51;87.42
66887;BME280;67239;51.680;5.976;2023-02-16T06:00:04;102205.50;;;4.61;86.98
66887;BME280;67239;51.680;5.976;2023-02-16T06:02:31;102210.81;;;4.66;86.93
66887;BME280;67239;51.680;5.976;2023-02-16T06:04:58;102199.50;;;4.67;86.55
66887;BME280;67239;51.680;5.976;2023-02-16T06:07:25;102195.16;;;4.68;86.44
66887;BME280;67239;51.680;5.976;2023-02-16T06:09:52;102194.31;;;4.69;86.17
66887;BME280;67239;51.680;5.976;2023-02-16T06:12:19;102203.00;;;4.69;86.00
66887;BME280;67239;51.680;5.976;2023-02-16T06:14:46;102219.56;;;4.70;85.84
66887;BME280;67239;51.680;5.976;2023-02-16T06:17:13;102201.34;;;4.73;86.21
66887;BME280;67239;51.680;5.976;2023-02-16T06:19:40;102192.69;;;4.77;85.94
66887;BME280;67239;51.680;5.976;2023-02-16T06:22:07;102184.81;;;4.75;85.81
66887;BME280;67239;51.680;5.976;2023-02-16T06:24:34;102183.91;;;4.72;85.55
66887;BME280;67239;51.680;5.976;2023-02-16T06:27:03;102179.50;;;4.69;85.83
66887;BME280;67239;51.680;5.976;2023-02-16T06:29:30;102183.84;;;4.67;86.00
66887;BME280;67239;51.680;5.976;2023-02-16T06:31:57;102185.50;;;4.63;85.78
66887;BME280;67239;51.680;5.976;2023-02-16T06:34:24;102206.44;;;4.65;85.98
66887;BME280;67239;51.680;5.976;2023-02-16T06:36:51;102204.69;;;4.65;86.05
66887;BME280;67239;51.680;5.976;2023-02-16T06:39:18;102206.44;;;4.66;85.99
66887;BME280;67239;51.680;5.976;2023-02-16T06:41:45;102193.41;;;4.68;86.01
66887;BME280;67239;51.680;5.976;2023-02-16T06:44:14;102189.94;;;4.68;85.95
66887;BME280;67239;51.680;5.976;2023-02-16T06:46:44;102189.06;;;4.69;85.93
66887;BME280;67239;51.680;5.976;2023-02-16T06:49:17;102203.91;;;4.70;85.90
66887;BME280;67239;51.680;5.976;2023-02-16T06:51:46;102203.91;;;4.70;85.97
66887;BME280;67239;51.680;5.976;2023-02-16T06:54:15;102196.97;;;4.73;85.91
66887;BME280;67239;51.680;5.976;2023-02-16T06:56:43;102202.22;;;4.75;86.16
66887;BME280;67239;51.680;5.976;2023-02-16T06:59:11;102194.44;;;4.76;86.09
66887;BME280;67239;51.680;5.976;2023-02-16T07:01:38;102206.66;;;4.80;86.14
66887;BME280;67239;51.680;5.976;2023-02-16T07:04:05;102204.97;;;4.82;86.26
66887;BME280;67239;51.680;5.976;2023-02-16T07:06:33;102212.88;;;4.87;86.10
66887;BME280;67239;51.680;5.976;2023-02-16T07:09:01;102210.31;;;4.90;86.02
66887;BME280;67239;51.680;5.976;2023-02-16T07:11:29;102206.88;;;4.94;86.15
66887;BME280;67239;51.680;5.976;2023-02-16T07:13:59;102210.44;;;4.98;85.79
66887;BME280;67239;51.680;5.976;2023-02-16T07:16:26;102221.81;;;5.03;85.95
66887;BME280;67239;51.680;5.976;2023-02-16T07:18:53;102214.97;;;5.10;85.78
66887;BME280;67239;51.680;5.976;2023-02-16T07:21:20;102206.28;;;5.14;85.85
66887;BME280;67239;51.680;5.976;2023-02-16T07:23:48;102209.84;;;5.19;85.80
66887;BME280;67239;51.680;5.976;2023-02-16T07:26:15;102208.16;;;5.21;85.55
66887;BME280;67239;51.680;5.976;2023-02-16T07:28:42;102214.28;;;5.23;85.60
66887;BME280;67239;51.680;5.976;2023-02-16T07:31:11;102216.00;;;5.24;85.41
66887;BME280;67239;51.680;5.976;2023-02-16T07:33:40;102231.75;;;5.26;85.41
66887;BME280;67239;51.680;5.976;2023-02-16T07:36:09;102234.34;;;5.26;85.54
66887;BME280;67239;51.680;5.976;2023-02-16T07:38:38;102229.13;;;5.27;85.35
66887;BME280;67239;51.680;5.976;2023-02-16T07:41:07;102234.41;;;5.29;85.25
66887;BME280;67239;51.680;5.976;2023-02-16T07:43:37;102220.50;;;5.32;85.36
66887;BME280;67239;51.680;5.976;2023-02-16T07:46:04;102221.34;;;5.32;85.30
66887;BME280;67239;51.680;5.976;2023-02-16T07:48:31;102213.56;;;5.35;85.41
66887;BME280;67239;51.680;5.976;2023-02-16T07:50:58;102222.31;;;5.39;85.48
66887;BME280;67239;51.680;5.976;2023-02-16T07:53:26;102218.91;;;5.43;85.54
66887;BME280;67239;51.680;5.976;2023-02-16T07:55:53;102216.38;;;5.51;85.51
66887;BME280;67239;51.680;5.976;2023-02-16T07:58:20;102213.84;;;5.58;85.49
66887;BME280;67239;51.680;5.976;2023-02-16T08:01:06;102209.63;;;5.68;85.00
66887;BME280;67239;51.680;5.976;2023-02-16T08:03:35;102203.59;;;5.75;85.08
66887;BME280;67239;51.680;5.976;2023-02-16T08:06:03;102212.41;;;5.82;84.90
66887;BME280;67239;51.680;5.976;2023-02-16T08:08:31;102220.41;;;5.95;84.82
66887;BME280;67239;51.680;5.976;2023-02-16T08:10:58;102221.38;;;6.04;84.70
66887;BME280;67239;51.680;5.976;2023-02-16T08:13:25;102218.03;;;6.18;84.65
66887;BME280;67239;51.680;5.976;2023-02-16T08:15:52;102227.75;;;6.31;84.48
66887;BME280;67239;51.680;5.976;2023-02-16T08:18:19;102223.50;;;6.41;84.40
66887;BME280;67239;51.680;5.976;2023-02-16T08:20:46;102219.19;;;6.49;84.37
66887;BME280;67239;51.680;5.976;2023-02-16T08:23:29;102227.13;;;6.59;84.21
66887;BME280;67239;51.680;5.976;2023-02-16T08:25:57;102228.97;;;6.66;84.17
66887;BME280;67239;51.680;5.976;2023-02-16T08:28:25;102231.63;;;6.71;84.07
66887;BME280;67239;51.680;5.976;2023-02-16T08:30:54;102243.88;;;6.73;83.90
66887;BME280;67239;51.680;5.976;2023-02-16T08:33:21;102254.34;;;6.73;83.91
66887;BME280;67239;51.680;5.976;2023-02-16T08:35:48;102256.97;;;6.75;83.52
66887;BME280;67239;51.680;5.976;2023-02-16T08:38:15;102253.50;;;6.76;83.59
66887;BME280;67239;51.680;5.976;2023-02-16T08:40:47;102254.38;;;6.76;83.46
66887;BME280;67239;51.680;5.976;2023-02-16T08:43:15;102245.63;;;6.77;83.38
66887;BME280;67239;51.680;5.976;2023-02-16T08:45:48;102240.41;;;6.82;83.06
66887;BME280;67239;51.680;5.976;2023-02-16T08:48:15;102236.06;;;6.84;83.01
66887;BME280;67239;51.680;5.976;2023-02-16T08:50:47;102243.09;;;6.90;83.18
66887;BME280;67239;51.680;5.976;2023-02-16T08:53:21;102253.63;;;6.94;83.14
66887;BME280;67239;51.680;5.976;2023-02-16T08:55:56;102251.91;;;6.95;82.71
66887;BME280;67239;51.680;5.976;2023-02-16T08:58:24;102256.28;;;6.97;82.96
66887;BME280;67239;51.680;5.976;2023-02-16T09:00:52;102245.81;;;7.02;83.00
66887;BME280;67239;51.680;5.976;2023-02-16T09:03:19;102257.22;;;7.07;83.08
66887;BME280;67239;51.680;5.976;2023-02-16T09:05:48;102263.38;;;7.11;82.87
66887;BME280;67239;51.680;5.976;2023-02-16T09:08:16;102258.16;;;7.17;82.97
66887;BME280;67239;51.680;5.976;2023-02-16T09:10:44;102265.19;;;7.23;82.92
66887;BME280;67239;51.680;5.976;2023-02-16T09:13:11;102266.09;;;7.28;82.68
66887;BME280;67239;51.680;5.976;2023-02-16T09:15:45;102266.16;;;7.34;82.96
66887;BME280;67239;51.680;5.976;2023-02-16T09:18:13;102267.03;;;7.39;82.59
66887;BME280;67239;51.680;5.976;2023-02-16T09:20:41;102258.31;;;7.42;82.52
66887;BME280;67239;51.680;5.976;2023-02-16T09:23:12;102264.44;;;7.44;82.29
66887;BME280;67239;51.680;5.976;2023-02-16T09:25:39;102258.31;;;7.45;82.12
66887;BME280;67239;51.680;5.976;2023-02-16T09:28:09;102263.59;;;7.46;82.14
66887;BME280;67239;51.680;5.976;2023-02-16T09:30:37;102264.50;;;7.50;81.91
66887;BME280;67239;51.680;5.976;2023-02-16T09:33:05;102269.72;;;7.52;81.95
66887;BME280;67239;51.680;5.976;2023-02-16T09:35:33;102278.50;;;7.54;81.80
66887;BME280;67239;51.680;5.976;2023-02-16T09:38:00;102275.91;;;7.57;81.79
66887;BME280;67239;51.680;5.976;2023-02-16T09:40:28;102284.66;;;7.64;81.58
66887;BME280;67239;51.680;5.976;2023-02-16T09:43:13;102281.19;;;7.66;81.34
66887;BME280;67239;51.680;5.976;2023-02-16T09:45:55;102282.06;;;7.71;81.49
66887;BME280;67239;51.680;5.976;2023-02-16T09:48:35;102284.75;;;7.81;81.35
66887;BME280;67239;51.680;5.976;2023-02-16T09:51:13;102280.41;;;7.87;81.42
66887;BME280;67239;51.680;5.976;2023-02-16T09:53:57;102279.53;;;7.95;81.36
66887;BME280;67239;51.680;5.976;2023-02-16T09:56:39;102279.56;;;8.04;81.12
66887;BME280;67239;51.680;5.976;2023-02-16T09:59:38;102275.25;;;8.12;80.76
66887;BME280;67239;51.680;5.976;2023-02-16T10:08:20;102260.41;;;8.37;80.45
66887;BME280;67239;51.680;5.976;2023-02-16T10:14:25;102255.22;;;8.54;80.59
66887;BME280;67239;51.680;5.976;2023-02-16T10:17:31;102248.19;;;8.66;80.47
66887;BME280;67239;51.680;5.976;2023-02-16T10:20:10;102249.94;;;8.76;80.36
66887;BME280;67239;51.680;5.976;2023-02-16T10:23:00;102237.69;;;8.80;80.15
66887;BME280;67239;51.680;5.976;2023-02-16T10:25:46;102238.56;;;8.79;80.27
66887;BME280;67239;51.680;5.976;2023-02-16T10:28:20;102242.06;;;8.78;80.48
66887;BME280;67239;51.680;5.976;2023-02-16T10:34:12;102249.06;;;8.65;80.48
66887;BME280;67239;51.680;5.976;2023-02-16T10:36:58;102244.69;;;8.59;81.08
66887;BME280;67239;51.680;5.976;2023-02-16T10:39:57;102251.69;;;8.52;81.02
66887;BME280;67239;51.680;5.976;2023-02-16T10:42:38;102254.28;;;8.46;81.16
66887;BME280;67239;51.680;5.976;2023-02-16T10:45:16;102259.53;;;8.42;81.39
66887;BME280;67239;51.680;5.976;2023-02-16T10:47:48;102263.03;;;8.40;81.48
66887;BME280;67239;51.680;5.976;2023-02-16T10:50:52;102251.66;;;8.40;81.40
66887;BME280;67239;51.680;5.976;2023-02-16T10:53:40;102249.03;;;8.40;81.54
66887;BME280;67239;51.680;5.976;2023-02-16T10:56:44;102249.88;;;8.45;81.81
66887;BME280;67239;51.680;5.976;2023-02-16T10:59:25;102251.69;;;8.57;82.11
66887;BME280;67239;51.680;5.976;2023-02-16T11:02:00;102246.44;;;8.73;81.93
66887;BME280;67239;51.680;5.976;2023-02-16T11:04:40;102247.31;;;8.90;81.73
66887;BME280;67239;51.680;5.976;2023-02-16T11:07:18;102261.31;;;9.08;81.52
66887;BME280;67239;51.680;5.976;2023-02-16T11:09:49;102256.03;;;9.11;81.68
66887;BME280;67239;51.680;5.976;2023-02-16T11:12:37;102263.06;;;9.18;81.48
66887;BME280;67239;51.680;5.976;2023-02-16T11:15:19;102262.19;;;9.21;81.80
66887;BME280;67239;51.680;5.976;2023-02-16T11:17:58;102266.56;;;9.19;81.47
66887;BME280;67239;51.680;5.976;2023-02-16T11:23:26;102258.69;;;9.08;80.92
66887;BME280;67239;51.680;5.976;2023-02-16T11:26:11;102251.69;;;9.07;80.78
66887;BME280;67239;51.680;5.976;2023-02-16T11:28:50;102254.31;;;9.04;81.08
66887;BME280;67239;51.680;5.976;2023-02-16T11:34:11;102257.81;;;8.89;81.11
66887;BME280;67239;51.680;5.976;2023-02-16T11:36:49;102260.47;;;8.73;81.44
66887;BME280;67239;51.680;5.976;2023-02-16T11:39:19;102255.22;;;8.61;81.52
66887;BME280;67239;51.680;5.976;2023-02-16T11:42:01;102254.31;;;8.49;81.93
66887;BME280;67239;51.680;5.976;2023-02-16T11:44:36;102257.75;;;8.40;82.23
66887;BME280;67239;51.680;5.976;2023-02-16T11:47:08;102263.00;;;8.31;82.42
66887;BME280;67239;51.680;5.976;2023-02-16T11:50:06;102253.34;;;8.21;82.44
66887;BME280;67239;51.680;5.976;2023-02-16T11:52:50;102245.47;;;8.13;82.74
66887;BME280;67239;51.680;5.976;2023-02-16T11:55:29;102248.94;;;8.11;82.92
66887;BME280;67239;51.680;5.976;2023-02-16T12:01:03;102230.59;;;8.12;83.78
66887;BME280;67239;51.680;5.976;2023-02-16T12:09:46;102225.31;;;8.20;84.54
66887;BME280;67239;51.680;5.976;2023-02-16T12:18:15;102221.00;;;8.28;85.13
66887;BME280;67239;51.680;5.976;2023-02-16T12:27:01;102195.63;;;8.64;85.81
66887;BME280;67239;51.680;5.976;2023-02-16T12:33:17;102199.97;;;8.87;85.59
66887;BME280;67239;51.680;5.976;2023-02-16T12:36:46;102183.31;;;8.88;85.52
66887;BME280;67239;51.680;5.976;2023-02-16T12:39:36;102178.94;;;8.92;85.37
66887;BME280;67239;51.680;5.976;2023-02-16T12:45:21;102171.88;;;9.09;85.54
66887;BME280;67239;51.680;5.976;2023-02-16T12:47:55;102163.97;;;9.17;85.33
66887;BME280;67239;51.680;5.976;2023-02-16T12:50:29;102152.53;;;9.23;85.07
66887;BME280;67239;51.680;5.976;2023-02-16T12:53:07;102146.34;;;9.31;85.01
66887;BME280;67239;51.680;5.976;2023-02-16T12:55:46;102153.34;;;9.43;84.96
66887;BME280;67239;51.680;5.976;2023-02-16T12:58:28;102147.97;;;9.59;85.09
66887;BME280;67239;51.680;5.976;2023-02-16T13:01:04;102145.25;;;9.73;84.72
66887;BME280;67239;51.680;5.976;2023-02-16T13:03:56;102138.16;;;9.84;84.32
66887;BME280;67239;51.680;5.976;2023-02-16T13:06:31;102138.06;;;9.98;84.24
66887;BME280;67239;51.680;5.976;2023-02-16T13:11:56;102115.88;;;10.29;83.24
66887;BME280;67239;51.680;5.976;2023-02-16T13:14:34;102113.13;;;10.44;82.76
66887;BME280;67239;51.680;5.976;2023-02-16T13:17:23;102116.59;;;10.52;82.61
66887;BME280;67239;51.680;5.976;2023-02-16T13:19:58;102116.53;;;10.59;82.31
66887;BME280;67239;51.680;5.976;2023-02-16T13:29:02;102096.94;;;10.80;81.70
66887;BME280;67239;51.680;5.976;2023-02-16T13:41:02;102086.38;;;10.83;81.78
66887;BME280;67239;51.680;5.976;2023-02-16T13:43:51;102087.25;;;10.83;81.65
66887;BME280;67239;51.680;5.976;2023-02-16T13:46:33;102079.31;;;10.85;81.74
66887;BME280;67239;51.680;5.976;2023-02-16T13:49:05;102070.56;;;10.81;81.73
66887;BME280;67239;51.680;5.976;2023-02-16T13:51:52;102067.97;;;10.78;81.52
66887;BME280;67239;51.680;5.976;2023-02-16T13:54:25;102068.00;;;10.75;81.61
66887;BME280;67239;51.680;5.976;2023-02-16T13:56:56;102060.94;;;10.77;81.80
66887;BME280;67239;51.680;5.976;2023-02-16T14:01:51;102064.31;;;10.88;82.00
66887;BME280;67239;51.680;5.976;2023-02-16T14:12:14;102042.66;;;11.30;81.53
66887;BME280;67239;51.680;5.976;2023-02-16T14:22:38;102017.56;;;11.61;80.69
66887;BME280;67239;51.680;5.976;2023-02-16T14:30:59;102000.84;;;11.60;80.08
66887;BME280;67239;51.680;5.976;2023-02-16T14:33:43;102005.25;;;11.60;80.05
66887;BME280;67239;51.680;5.976;2023-02-16T14:36:22;102013.16;;;11.61;79.90
66887;BME280;67239;51.680;5.976;2023-02-16T14:38:54;102006.13;;;11.60;79.86
66887;BME280;67239;51.680;5.976;2023-02-16T14:46:41;102007.72;;;11.72;79.83
66887;BME280;67239;51.680;5.976;2023-02-16T14:58:55;101993.25;;;11.93;79.76
66887;BME280;67239;51.680;5.976;2023-02-16T15:01:58;101993.25;;;11.95;79.61
66887;BME280;67239;51.680;5.976;2023-02-16T15:04:30;101993.25;;;11.93;79.17
66887;BME280;67239;51.680;5.976;2023-02-16T15:07:01;101984.53;;;11.88;79.33
66887;BME280;67239;51.680;5.976;2023-02-16T15:09:34;101981.19;;;11.78;79.28
66887;BME280;67239;51.680;5.976;2023-02-16T15:12:07;101990.06;;;11.73;79.35
66887;BME280;67239;51.680;5.976;2023-02-16T15:15:02;101994.66;;;11.63;79.50
66887;BME280;67239;51.680;5.976;2023-02-16T15:17:46;101986.00;;;11.53;79.66
66887;BME280;67239;51.680;5.976;2023-02-16T15:20:28;101991.28;;;11.53;80.06
66887;BME280;67239;51.680;5.976;2023-02-16T15:23:02;101988.63;;;11.53;80.30
66887;BME280;67239;51.680;5.976;2023-02-16T15:25:36;101990.28;;;11.60;80.20
66887;BME280;67239;51.680;5.976;2023-02-16T15:30:44;101987.44;;;11.74;80.26
66887;BME280;67239;51.680;5.976;2023-02-16T15:36:02;101974.81;;;11.90;79.96
66887;BME280;67239;51.680;5.976;2023-02-16T15:38:35;101985.28;;;11.98;79.65
66887;BME280;67239;51.680;5.976;2023-02-16T15:41:25;101981.56;;;12.08;79.35
66887;BME280;67239;51.680;5.976;2023-02-16T15:43:58;101975.44;;;12.06;79.23
66887;BME280;67239;51.680;5.976;2023-02-16T15:46:36;101976.41;;;12.02;78.88
66887;BME280;67239;51.680;5.976;2023-02-16T15:51:41;101964.31;;;11.86;78.98